< < Back
Terminal Aerodrome Forecast


Current Version              Previous Versions:   1  2  3  4  5  6  7  8  9  

Terminal Aerodrome Forecast

395
FTUS44 KBMX 301740
TAFANB
TAF
KANB 301740Z 3018/0118 25011G18KT P6SM VCSH BKN050
     FM302100 25011G18KT P6SM VCTS BKN050CB
     FM010300 28004KT P6SM SCT250
     FM010900 24003KT 4SM BR BKN025
     FM011300 25005KT P6SM VCTS SCT050CB=



Latest METAR

950
SAUS70 KWBC 010200 RRI
MTRANB
METAR KANB 010153Z AUTO 24006KT 10SM CLR 22/18 A3002 RMK AO2 SLP158
T02220183


USA.gov is the U.S. government's official web portal to all federal, state and local government web resources and services.